KMBY

Omar N Bradley Airport

Moberly, Missouri, USA
METAR KMBY 161435Z AUTO 21008KT 10SM CLR 03/M05 A2991 RMK AO2
Observed Flight Rules
Dec-16 @ 14:35 UTC (18 minutes ago) Visual Flight Rules
Wind Visibility Clouds
210° at 8 knots 10 miles
  • Clear skies
Temperatures Readings
Current 3°C / 37°F
Dewpoint -5°C / 23°F
Humidity 56%
Altimeter 29.91" Hg
Pressure 1013 hPa
Elevation 264
METAR KMBY 161435Z AUTO 21008KT 10SM CLR 03/M05 A2991 RMK AO2
Observed Flight Rules
Dec-16 @ 14:35 UTC
(18 minutes ago)
VFR
Wind Visibility
210° at 8 knots 10 miles
Clouds
  • Clear skies
Temperature Dewpoint
3°C / 37°F -5°C / 23°F
Humidity Altimeter Pressure
56% 29.91" Hg 1013 hPa